Aviation Digital Data Service (ADDS)

Output produced by METARs form (2350 UTC 28 September 2016)
found at http://aviationweather.gov/adds/metars/
 
KGNV 282325Z 2900/2924 23003KT P6SM -RA SCT030 BKN100 OVC250 
     FM290300 21003KT P6SM SCT020 BKN120 
     TEMPO 2907/2911 3SM BR SCT004 
     FM291400 24005KT P6SM VCSH SCT025 SCT120 
     FM291700 25007KT P6SM VCTS SCT030CB 
     TEMPO 2918/2922 3SM TSRA BR BKN020CB